createdAt,value
2018-04-28T00:00:39.825Z,94.65
2018-04-28T00:01:39.913Z,94.74
2018-04-28T00:02:39.875Z,93.79
2018-04-28T00:03:40.239Z,94.37
2018-04-28T00:04:40.608Z,94.74
2018-04-28T00:05:40.867Z,95.32
2018-04-28T00:06:40.503Z,95.79
2018-04-28T00:07:40.548Z,95.89
2018-04-28T00:08:41.150Z,95.98
2018-04-28T00:09:40.468Z,95.98
2018-04-28T00:10:40.184Z,95.79
2018-04-28T00:11:40.984Z,95.32
2018-04-28T00:12:40.594Z,95.79
2018-04-28T00:13:41.064Z,95.32
2018-04-28T00:14:41.169Z,95.7
2018-04-28T00:15:40.840Z,95.98
2018-04-28T00:16:41.358Z,95.6
2018-04-28T00:17:41.419Z,95.6
2018-04-28T00:18:41.384Z,95.51
2018-04-28T00:19:41.390Z,95.6
2018-04-28T00:20:41.439Z,95.41
2018-04-28T00:21:41.904Z,95.6
2018-04-28T00:22:42.006Z,95.6
2018-04-28T00:23:42.333Z,95.6
2018-04-28T00:24:42.370Z,95.12
2018-04-28T00:25:42.123Z,95.98
2018-04-28T00:26:42.557Z,95.89
2018-04-28T00:27:42.559Z,96.36
2018-04-28T00:28:42.947Z,96.46
2018-04-28T00:29:43.181Z,96.89
2018-04-28T00:30:43.349Z,97.13
2018-04-28T00:31:44.092Z,97.55
2018-04-28T00:32:44.290Z,97.45
2018-04-28T00:33:44.389Z,97.36
2018-04-28T00:34:44.779Z,97.83
2018-04-28T00:35:44.986Z,98.22
2018-04-28T00:36:44.952Z,98.31
2018-04-28T00:37:45.080Z,98.31
2018-04-28T00:38:44.615Z,98.41
2018-04-28T00:39:44.639Z,98.69
2018-04-28T00:40:44.667Z,98.31
2018-04-28T00:41:45.309Z,98.79
2018-04-28T00:42:45.237Z,98.6
2018-04-28T00:43:45.575Z,98.88
2018-04-28T00:44:45.396Z,99.26
2018-04-28T00:45:45.848Z,98.88
2018-04-28T00:46:45.464Z,98.88
2018-04-28T00:47:45.479Z,98.79
2018-04-28T00:48:45.522Z,99.16
2018-04-28T00:49:45.592Z,99.55
2018-04-28T00:50:45.973Z,99.26
2018-04-28T00:51:46.098Z,99.16
2018-04-28T00:52:45.909Z,99.74
2018-04-28T00:53:46.300Z,99.99
2018-04-28T00:54:46.789Z,99.55
2018-04-28T00:55:46.319Z,99.84
2018-04-28T00:56:46.749Z,99.99
2018-04-28T00:57:47.217Z,99.99
2018-04-28T00:58:47.269Z,99.99
2018-04-28T00:59:47.719Z,99.99
2018-04-28T01:00:47.733Z,99.99
2018-04-28T01:01:47.932Z,99.84
2018-04-28T01:02:47.951Z,99.99
2018-04-28T01:03:47.971Z,99.99
2018-04-28T01:04:48.001Z,99.99
2018-04-28T01:05:48.031Z,99.99
2018-04-28T01:06:48.087Z,99.99
2018-04-28T01:07:48.609Z,99.99
2018-04-28T01:08:48.437Z,99.99
2018-04-28T01:09:48.629Z,99.99
2018-04-28T01:10:48.378Z,99.99
2018-04-28T01:11:49.059Z,99.99
2018-04-28T01:12:49.092Z,99.99
2018-04-28T01:13:49.116Z,99.99
2018-04-28T01:14:49.149Z,99.99
2018-04-28T01:15:49.348Z,99.99
2018-04-28T01:16:49.374Z,99.99
2018-04-28T01:17:49.412Z,99.99
2018-04-28T01:18:50.464Z,99.99
2018-04-28T01:19:49.843Z,99.99
2018-04-28T01:20:50.586Z,99.99
2018-04-28T01:21:50.562Z,99.99
2018-04-28T01:22:51.014Z,99.99
2018-04-28T01:23:51.059Z,99.99
2018-04-28T01:24:51.163Z,99.99
2018-04-28T01:25:51.083Z,99.99
2018-04-28T01:26:50.847Z,99.99
2018-04-28T01:27:51.451Z,99.99
2018-04-28T01:28:51.506Z,99.99
2018-04-28T01:29:51.534Z,99.99
2018-04-28T01:30:51.506Z,99.99
2018-04-28T01:31:52.016Z,99.99
2018-04-28T01:32:52.039Z,99.99
2018-04-28T01:33:52.494Z,99.99
2018-04-28T01:34:52.788Z,99.99
2018-04-28T01:35:52.734Z,99.99
2018-04-28T01:36:52.758Z,99.99
2018-04-28T01:37:53.009Z,99.99
2018-04-28T01:38:53.276Z,99.99
2018-04-28T01:39:53.295Z,99.99
2018-04-28T01:40:53.333Z,99.99
2018-04-28T01:41:53.354Z,99.99
2018-04-28T01:42:53.127Z,99.99
2018-04-28T01:43:53.478Z,99.99
2018-04-28T01:44:53.183Z,99.99
2018-04-28T01:45:53.489Z,99.99
2018-04-28T01:46:53.673Z,99.99
2018-04-28T01:47:53.905Z,99.99
2018-04-28T01:48:54.180Z,99.99
2018-04-28T01:49:54.207Z,99.99
2018-04-28T01:50:54.240Z,99.99
2018-04-28T01:51:54.407Z,99.99
2018-04-28T01:52:54.193Z,99.99
2018-04-28T01:53:54.676Z,99.99
2018-04-28T01:54:54.891Z,99.99
2018-04-28T01:55:54.628Z,99.99
2018-04-28T01:56:55.223Z,99.99
2018-04-28T01:57:55.410Z,99.99
2018-04-28T01:58:55.457Z,99.99
2018-04-28T01:59:55.500Z,99.99
2018-04-28T02:00:56.227Z,99.99
2018-04-28T02:01:55.908Z,99.99
2018-04-28T02:02:55.547Z,99.99
2018-04-28T02:03:56.024Z,99.99
2018-04-28T02:04:56.062Z,99.99
2018-04-28T02:05:55.809Z,99.99
2018-04-28T02:06:56.293Z,99.99
2018-04-28T02:07:56.759Z,99.99
2018-04-28T02:08:56.857Z,99.99
2018-04-28T02:09:56.840Z,99.99
2018-04-28T02:10:56.576Z,99.99
2018-04-28T02:11:57.079Z,99.99
2018-04-28T02:12:57.122Z,99.99
2018-04-28T02:13:56.851Z,99.99
2018-04-28T02:14:57.177Z,99.99
2018-04-28T02:15:57.220Z,99.99
2018-04-28T02:16:57.266Z,99.99
2018-04-28T02:17:57.719Z,99.99
2018-04-28T02:18:57.807Z,99.99
2018-04-28T02:19:57.809Z,99.99
2018-04-28T02:20:57.865Z,99.99
2018-04-28T02:21:57.874Z,99.99
2018-04-28T02:22:57.899Z,99.99
2018-04-28T02:23:57.913Z,99.99
2018-04-28T02:24:58.098Z,99.99
2018-04-28T02:25:58.459Z,99.99
2018-04-28T02:26:58.459Z,99.99
2018-04-28T02:27:58.529Z,99.99
2018-04-28T02:28:58.509Z,99.99
2018-04-28T02:29:58.578Z,99.99
2018-04-28T02:30:58.297Z,99.99
2018-04-28T02:31:58.613Z,99.99
2018-04-28T02:32:58.643Z,99.99
2018-04-28T02:33:58.636Z,99.99
2018-04-28T02:34:58.678Z,99.99
2018-04-28T02:35:58.983Z,99.99
2018-04-28T02:36:58.728Z,99.99
2018-04-28T02:38:00.255Z,99.99
2018-04-28T02:38:59.916Z,99.99
2018-04-28T02:39:59.647Z,99.99
2018-04-28T02:40:59.688Z,99.99
2018-04-28T02:42:00.671Z,99.99
2018-04-28T02:43:00.575Z,99.99
2018-04-28T02:44:00.111Z,99.99
2018-04-28T02:45:00.312Z,99.99
2018-04-28T02:46:00.438Z,99.99
2018-04-28T02:47:00.698Z,99.99
2018-04-28T02:48:00.442Z,99.99
2018-04-28T02:49:00.956Z,99.99
2018-04-28T02:50:01.143Z,99.99
2018-04-28T02:51:00.600Z,99.99
2018-04-28T02:52:00.600Z,99.99
2018-04-28T02:53:00.566Z,99.99
2018-04-28T02:54:00.603Z,99.99
2018-04-28T02:55:00.627Z,99.99
2018-04-28T02:56:00.367Z,99.99
2018-04-28T02:57:00.676Z,99.99
2018-04-28T02:58:00.706Z,99.99
2018-04-28T02:59:00.740Z,99.99
2018-04-28T03:00:00.759Z,99.99
2018-04-28T04:00:11.301Z,99.99
2018-04-28T04:00:22.735Z,99.99
2018-04-28T04:01:22.768Z,99.99
2018-04-28T04:02:23.463Z,99.99
2018-04-28T04:03:23.826Z,99.99
2018-04-28T04:04:23.311Z,99.99
2018-04-28T04:05:23.307Z,99.99
2018-04-28T04:06:23.550Z,99.99
2018-04-28T04:07:23.487Z,99.99
2018-04-28T04:08:24.032Z,99.99
2018-04-28T04:09:24.416Z,99.99
2018-04-28T04:10:24.560Z,99.99
2018-04-28T04:11:24.590Z,99.99
2018-04-28T04:12:24.750Z,99.99
2018-04-28T04:13:24.494Z,99.99
2018-04-28T04:14:24.902Z,99.99
2018-04-28T04:15:24.917Z,99.99
2018-04-28T04:16:25.502Z,99.99
2018-04-28T04:17:24.967Z,99.99
2018-04-28T04:18:24.712Z,99.99
2018-04-28T04:19:25.030Z,99.99
2018-04-28T04:20:25.056Z,99.99
2018-04-28T04:21:25.164Z,99.99
2018-04-28T04:22:25.835Z,99.99
2018-04-28T04:23:25.864Z,99.99
2018-04-28T04:24:25.885Z,99.99
2018-04-28T04:25:26.110Z,99.99
2018-04-28T04:26:26.645Z,99.99
2018-04-28T04:27:27.033Z,99.99
2018-04-28T04:28:27.341Z,99.99
2018-04-28T04:29:27.859Z,99.99
2018-04-28T04:30:27.823Z,99.99
2018-04-28T04:31:28.196Z,99.99
2018-04-28T04:32:28.319Z,99.99
2018-04-28T04:33:28.344Z,99.99
2018-04-28T04:34:29.395Z,99.99
2018-04-28T04:35:29.247Z,99.99
2018-04-28T04:36:28.987Z,99.99
2018-04-28T04:37:29.363Z,99.99
2018-04-28T04:38:29.079Z,99.99
2018-04-28T04:39:29.345Z,99.99
2018-04-28T04:40:29.188Z,99.99
2018-04-28T04:41:29.323Z,99.99
2018-04-28T04:42:29.641Z,99.99
2018-04-28T04:43:29.682Z,99.99
2018-04-28T04:44:29.718Z,99.99
2018-04-28T04:45:30.119Z,99.99
2018-04-28T04:46:30.144Z,99.99
2018-04-28T04:47:30.249Z,99.99
2018-04-28T04:48:30.372Z,99.99
2018-04-28T04:49:31.035Z,99.99
2018-04-28T04:50:30.783Z,99.99
2018-04-28T04:51:31.422Z,99.99
2018-04-28T04:52:31.448Z,99.99
2018-04-28T04:53:31.844Z,99.99
2018-04-28T04:54:31.877Z,99.99
2018-04-28T04:55:31.898Z,99.99
2018-04-28T04:56:31.648Z,99.99
2018-04-28T04:57:32.011Z,99.99
2018-04-28T04:58:32.050Z,99.99
2018-04-28T04:59:32.209Z,99.99
2018-04-28T05:00:33.870Z,99.99
2018-04-28T05:01:33.796Z,99.99
2018-04-28T06:00:08.012Z,74.52
2018-04-28T06:00:51.300Z,74.82
2018-04-28T06:01:51.544Z,74.62
2018-04-28T06:02:51.974Z,75.58
2018-04-28T06:03:52.226Z,75.39
2018-04-28T06:04:52.207Z,74.77
2018-04-28T06:05:52.889Z,75.26
2018-04-28T06:06:53.639Z,75.35
2018-04-28T06:07:53.416Z,76.06
2018-04-28T06:08:53.176Z,74.85
2018-04-28T06:09:53.955Z,74.33
2018-04-28T06:10:54.015Z,74.05
2018-04-28T06:11:53.769Z,74.15
2018-04-28T06:12:54.854Z,74.68
2018-04-28T06:13:54.617Z,74.4
2018-04-28T06:14:55.329Z,74.77
2018-04-28T06:15:54.744Z,74.2
2018-04-28T06:16:56.308Z,72.52
2018-04-28T06:17:56.290Z,72.17
2018-04-28T06:18:56.112Z,71.15
2018-04-28T06:19:56.460Z,71.25
2018-04-28T06:20:56.540Z,72.68
2018-04-28T06:21:57.149Z,70.51
2018-04-28T06:22:56.175Z,68.85
2018-04-28T06:23:56.146Z,69.18
2018-04-28T06:24:56.216Z,65.37
2018-04-28T06:25:56.631Z,63.89
2018-04-28T06:26:56.092Z,61.93
2018-04-28T06:27:56.528Z,60.28
2018-04-28T06:28:56.857Z,57.23
2018-04-28T06:29:56.626Z,56.22
2018-04-28T06:30:57.850Z,56.73
2018-04-28T06:31:57.467Z,56.95
2018-04-28T06:32:57.536Z,56.14
2018-04-28T06:33:57.569Z,55.49
2018-04-28T06:34:58.147Z,54.91
2018-04-28T06:35:58.026Z,54.98
2018-04-28T06:36:58.059Z,53.85
2018-04-28T06:37:57.818Z,52.51
2018-04-28T06:38:58.473Z,52.83
2018-04-28T06:39:58.635Z,52.18
2018-04-28T06:40:58.943Z,48.8
2018-04-28T06:41:59.122Z,48.05
2018-04-28T06:42:59.430Z,49.22
2018-04-28T06:44:00.262Z,48.1
2018-04-28T06:44:59.950Z,46.11
2018-04-28T06:45:59.684Z,44.76
2018-04-28T06:47:00.001Z,44.84
2018-04-28T06:47:59.766Z,46.3
2018-04-28T06:49:00.036Z,46.51
2018-04-28T06:50:00.449Z,45.86
2018-04-28T06:51:00.689Z,45.81
2018-04-28T06:52:00.849Z,44.78
2018-04-28T06:53:00.642Z,43.33
2018-04-28T06:54:00.873Z,41.99
2018-04-28T06:55:01.173Z,41.74
2018-04-28T06:56:00.957Z,43.01
2018-04-28T06:57:00.951Z,41.07
2018-04-28T06:58:01.206Z,41.58
2018-04-28T06:59:01.352Z,38.75
2018-04-28T07:00:03.856Z,40.9
2018-04-28T07:01:02.371Z,39.43
2018-04-28T07:02:02.544Z,40.97
2018-04-28T08:00:08.248Z,31.01
2018-04-28T09:00:02.061Z,28.2
2018-04-28T09:00:29.954Z,28.38
2018-04-28T09:01:30.229Z,28.39
2018-04-28T09:02:30.032Z,27.23
2018-04-28T09:03:30.109Z,26.95
2018-04-28T09:04:30.215Z,26.37
2018-04-28T09:05:30.165Z,25.57
2018-04-28T09:06:30.228Z,25.36
2018-04-28T09:07:30.452Z,27.24
2018-04-28T09:08:30.598Z,26.86
2018-04-28T09:09:31.402Z,25.67
2018-04-28T09:10:31.221Z,26.98
2018-04-28T09:11:31.188Z,24.99
2018-04-28T09:12:32.022Z,25.86
2018-04-28T09:13:31.550Z,27.04
2018-04-28T09:14:31.612Z,27.15
2018-04-28T09:15:31.611Z,25.97
2018-04-28T09:16:31.661Z,25.09
2018-04-28T09:17:32.037Z,25.09
2018-04-28T09:18:32.019Z,25.36
2018-04-28T09:19:31.968Z,25.36
2018-04-28T09:20:32.234Z,25.86
2018-04-28T09:21:32.029Z,25.48
2018-04-28T09:22:32.588Z,25.45
2018-04-28T09:23:32.684Z,25.63
2018-04-28T09:24:32.690Z,27.12
2018-04-28T09:25:32.776Z,26.94
2018-04-28T09:26:32.540Z,26.37
2018-04-28T09:27:31.889Z,25.78
2018-04-28T09:28:32.768Z,26.18
2018-04-28T09:29:32.085Z,25.38
2018-04-28T09:30:32.225Z,25.07
2018-04-28T09:31:32.049Z,25.66
2018-04-28T09:32:32.656Z,24.98
2018-04-28T09:33:32.389Z,25.48
2018-04-28T09:34:32.130Z,25.07
2018-04-28T09:35:32.709Z,25.26
2018-04-28T09:36:32.553Z,25.86
2018-04-28T09:37:32.607Z,25.57
2018-04-28T09:38:32.935Z,26.68
2018-04-28T09:39:33.417Z,25.61
2018-04-28T09:40:33.564Z,26.42
2018-04-28T09:41:33.410Z,24.74
2018-04-28T09:42:33.450Z,24.84
2018-04-28T09:43:34.171Z,24.75
2018-04-28T09:44:34.092Z,24.45
2018-04-28T09:45:33.942Z,24.35
2018-04-28T09:46:34.299Z,25.15
2018-04-28T09:47:34.316Z,25.43
2018-04-28T09:48:34.279Z,25.63
2018-04-28T09:49:34.387Z,25.34
2018-04-28T09:50:33.688Z,25.45
2018-04-28T09:51:33.852Z,25.55
2018-04-28T09:52:34.101Z,25.05
2018-04-28T09:53:34.201Z,25.16
2018-04-28T09:54:33.815Z,24.47
2018-04-28T09:55:33.895Z,24.57
2018-04-28T09:56:34.823Z,24.36
2018-04-28T09:57:34.731Z,24.85
2018-04-28T09:58:34.083Z,24.82
2018-04-28T09:59:34.686Z,24.82
2018-04-28T11:00:10.426Z,47.96
2018-04-28T11:01:09.239Z,48.64
2018-04-28T11:02:10.039Z,49
2018-04-28T11:03:09.630Z,47.94
2018-04-28T11:04:09.354Z,48.32
2018-04-28T11:05:09.790Z,47.67
2018-04-28T11:06:09.920Z,47.77
2018-04-28T11:07:09.950Z,46.53
2018-04-28T11:08:09.928Z,47.38
2018-04-28T11:09:09.983Z,48.32
2018-04-28T11:10:10.189Z,48.81
2018-04-28T11:11:10.018Z,48.61
2018-04-28T11:12:09.832Z,48.9
2018-04-28T11:13:10.215Z,49.65
2018-04-28T11:14:11.024Z,49.65
2018-04-28T11:15:10.527Z,49.07
2018-04-28T11:16:10.588Z,49.85
2018-04-28T11:17:11.037Z,49.1
2018-04-28T11:18:11.056Z,48.57
2018-04-28T11:19:11.113Z,47.33
2018-04-28T11:20:11.316Z,46.86
2018-04-28T11:21:11.381Z,46.48
2018-04-28T11:22:11.391Z,45.82
2018-04-28T11:23:11.578Z,44.37
2018-04-28T11:24:12.195Z,44
2018-04-28T11:25:12.400Z,45.04
2018-04-28T11:26:12.092Z,43.57
2018-04-28T11:27:12.083Z,44.64
2018-04-28T11:28:12.084Z,45.2
2018-04-28T11:29:12.440Z,45.27
2018-04-28T11:30:12.166Z,46.12
2018-04-28T11:31:12.213Z,46.02
2018-04-28T11:32:11.947Z,43.72
2018-04-28T11:33:12.260Z,45.29
2018-04-28T11:34:12.332Z,45.1
2018-04-28T11:35:12.144Z,44.83
2018-04-28T11:36:12.607Z,45.21
2018-04-28T11:37:12.304Z,43.59
2018-04-28T11:38:12.536Z,45.41
2018-04-28T11:39:12.584Z,45.31
2018-04-28T11:40:13.233Z,46.26
2018-04-28T11:41:13.402Z,45.17
2018-04-28T11:42:13.574Z,45.54
2018-04-28T11:43:14.380Z,44.93
2018-04-28T11:44:14.378Z,46.66
2018-04-28T11:45:14.500Z,46.73
2018-04-28T11:46:14.623Z,46.42
2018-04-28T11:47:14.690Z,47.09
2018-04-28T11:48:15.049Z,46.49
2018-04-28T11:49:15.082Z,46.88
2018-04-28T11:50:15.610Z,48.79
2018-04-28T11:51:15.753Z,49.19
2018-04-28T11:52:15.846Z,49.55
2018-04-28T11:53:15.817Z,48.69
2018-04-28T11:54:16.114Z,48.97
2018-04-28T11:55:15.850Z,49.82
2018-04-28T11:56:16.178Z,49.34
2018-04-28T11:57:16.431Z,49.34
2018-04-28T11:58:16.864Z,49.73
2018-04-28T11:59:17.239Z,49.07
2018-04-28T12:00:17.251Z,49.15
2018-04-28T12:01:17.929Z,49.17
2018-04-28T13:00:04.757Z,51.65
2018-04-28T13:00:19.486Z,50.98
2018-04-28T13:01:19.504Z,49.73
2018-04-28T13:02:20.183Z,51.75
2018-04-28T13:03:20.358Z,51.26
2018-04-28T13:04:20.656Z,48.47
2018-04-28T13:05:20.642Z,47.8
2018-04-28T13:06:21.167Z,47.7
2018-04-28T13:07:21.158Z,47.12
2018-04-28T13:08:21.191Z,48.66
2018-04-28T13:09:21.365Z,49.53
2018-04-28T13:10:21.477Z,49.53
2018-04-28T13:11:22.199Z,50.49
2018-04-28T13:12:22.235Z,50.21
2018-04-28T13:13:22.902Z,49.53
2018-04-28T13:14:22.942Z,45.97
2018-04-28T13:15:22.692Z,47.12
2018-04-28T13:16:23.051Z,48.66
2018-04-28T13:17:23.094Z,49.63
2018-04-28T13:18:23.415Z,49.53
2018-04-28T13:19:23.663Z,48.95
2018-04-28T13:20:23.805Z,49.53
2018-04-28T13:21:23.998Z,49.43
2018-04-28T13:22:23.794Z,49.12
2018-04-28T13:23:24.195Z,48.93
2018-04-28T13:24:24.108Z,49.22
2018-04-28T13:25:24.613Z,50.66
2018-04-28T13:26:24.652Z,51.53
2018-04-28T13:27:24.393Z,50.37
2018-04-28T13:28:24.724Z,51.62
2018-04-28T13:29:24.757Z,49.41
2018-04-28T13:30:24.791Z,50.66
2018-04-28T13:31:25.042Z,48.25
2018-04-28T13:32:24.865Z,48.25
2018-04-28T13:33:24.907Z,47.22
2018-04-28T13:34:24.945Z,46.35
2018-04-28T13:35:24.969Z,45.87
2018-04-28T13:36:24.988Z,45.29
2018-04-28T13:37:25.031Z,44.98
2018-04-28T13:38:25.060Z,45.87
2018-04-28T13:39:24.822Z,46.45
2018-04-28T13:40:24.862Z,46.35
2018-04-28T13:41:24.892Z,46.14
2018-04-28T13:42:25.059Z,46.45
2018-04-28T13:43:25.407Z,48.76
2018-04-28T13:44:25.549Z,48.18
2018-04-28T13:45:25.945Z,46.45
2018-04-28T13:46:25.981Z,45.94
2018-04-28T13:47:25.755Z,47.6
2018-04-28T13:48:26.280Z,47.97
2018-04-28T13:49:26.891Z,49.41
2018-04-28T13:50:26.814Z,49.7
2018-04-28T13:51:26.956Z,48.25
2018-04-28T13:52:27.537Z,48.93
2018-04-28T13:53:27.386Z,49.99
2018-04-28T13:54:27.889Z,49.6
2018-04-28T13:55:27.855Z,46.62
2018-04-28T13:56:27.982Z,48.43
2018-04-28T13:57:28.464Z,48.64
2018-04-28T13:58:28.434Z,49.99
2018-04-28T13:59:28.508Z,50.27
2018-04-28T14:00:28.689Z,49.41
2018-04-28T14:01:28.949Z,50.57
2018-04-28T14:02:29.041Z,50.57
2018-04-28T14:03:29.024Z,50.95
2018-04-28T14:04:28.666Z,51.72
2018-04-28T14:05:28.709Z,49.7
2018-04-28T14:06:28.881Z,49.79
2018-04-28T14:07:29.062Z,51.05
2018-04-28T14:08:29.084Z,52.49
2018-04-28T14:09:29.185Z,49.79
2018-04-28T14:10:28.882Z,49.99
2018-04-28T14:11:29.242Z,50.76
2018-04-28T14:12:29.103Z,51.53
2018-04-28T14:13:29.135Z,52.01
2018-04-28T14:14:29.509Z,51.24
2018-04-28T14:15:29.560Z,49.6
2018-04-28T14:16:29.309Z,48.93
2018-04-28T14:17:29.347Z,50.57
2018-04-28T14:18:29.418Z,51.53
2018-04-28T14:19:29.726Z,51.82
2018-04-28T14:20:29.905Z,52.78
2018-04-28T14:21:30.184Z,51.02
2018-04-28T14:22:30.222Z,51.21
2018-04-28T14:23:30.394Z,50.76
2018-04-28T14:24:30.847Z,50.83
2018-04-28T14:25:32.041Z,50.93
2018-04-28T14:26:31.363Z,52.18
2018-04-28T14:27:31.859Z,52.08
2018-04-28T14:28:31.606Z,52.85
2018-04-28T14:29:31.994Z,53.55
2018-04-28T14:30:32.022Z,52.2
2018-04-28T14:31:32.095Z,50.73
2018-04-28T14:32:31.870Z,50.35
2018-04-28T14:33:32.168Z,50.73
2018-04-28T14:34:31.909Z,49.87
2018-04-28T14:35:31.921Z,50.06
2018-04-28T14:36:32.386Z,51.21
2018-04-28T14:37:32.411Z,51.6
2018-04-28T14:38:32.449Z,51.43
2018-04-28T14:39:32.818Z,50.95
2018-04-28T14:40:33.152Z,49.48
2018-04-28T14:41:33.320Z,50.09
2018-04-28T14:42:33.746Z,50.57
2018-04-28T14:43:33.921Z,51.05
2018-04-28T14:44:34.154Z,51.12
2018-04-28T14:45:34.565Z,49.38
2018-04-28T14:46:34.665Z,48.43
2018-04-28T14:47:35.011Z,49.19
2018-04-28T14:48:35.012Z,49.48
2018-04-28T14:49:35.378Z,51.21
2018-04-28T14:50:35.116Z,49.58
2018-04-28T14:51:35.579Z,49.87
2018-04-28T14:52:34.938Z,49.58
2018-04-28T14:53:35.201Z,50.93
2018-04-28T14:54:35.252Z,50.83
2018-04-28T14:55:35.385Z,49.48
2018-04-28T14:56:35.707Z,49.48
2018-04-28T14:57:35.465Z,49.48
2018-04-28T14:58:35.856Z,50.06
2018-04-28T14:59:36.286Z,49.96
2018-04-28T15:00:37.451Z,50.15
2018-04-28T15:01:38.263Z,51.31
2018-04-28T16:00:09.589Z,41.56
2018-04-28T16:00:55.323Z,41.93
2018-04-28T16:01:55.978Z,42.43
2018-04-28T16:02:56.011Z,42.53
2018-04-28T16:03:55.763Z,43.18
2018-04-28T16:04:56.168Z,42.53
2018-04-28T16:05:56.552Z,42.72
2018-04-28T16:06:56.576Z,41.74
2018-04-28T16:07:56.656Z,42.33
2018-04-28T16:08:56.667Z,42.53
2018-04-28T16:09:56.691Z,44.17
2018-04-28T16:10:57.681Z,42.63
2018-04-28T16:11:57.409Z,42.91
2018-04-28T16:12:57.436Z,43.3
2018-04-28T16:13:57.853Z,44.93
2018-04-28T16:14:57.899Z,46.57
2018-04-28T16:15:57.664Z,46.09
2018-04-28T16:16:58.179Z,45.68
2018-04-28T16:17:57.923Z,44.82
2018-04-28T16:18:58.244Z,45.49
2018-04-28T16:19:58.292Z,45.13
2018-04-28T16:20:58.310Z,44.07
2018-04-28T16:21:58.502Z,45.68
2018-04-28T16:22:58.403Z,45.61
2018-04-28T16:23:58.932Z,44.65
2018-04-28T16:24:58.573Z,44.55
2018-04-28T16:25:58.881Z,44.24
2018-04-28T16:26:59.023Z,43.66
2018-04-28T16:27:59.049Z,42.24
2018-04-28T16:28:59.472Z,42.24
2018-04-28T16:29:59.967Z,41.47
2018-04-28T16:30:59.957Z,42.14
2018-04-28T16:32:00.167Z,44.74
2018-04-28T16:33:00.549Z,41.86
2018-04-28T16:33:59.921Z,42.41
2018-04-28T16:35:00.669Z,43.01
2018-04-28T16:36:00.675Z,43.88
2018-04-28T16:37:01.013Z,43.97
2018-04-28T16:38:00.773Z,44.55
2018-04-28T16:39:01.182Z,45.51
2018-04-28T16:40:01.199Z,44.17
2018-04-28T16:41:01.255Z,45.03
2018-04-28T16:42:01.285Z,45.51
2018-04-28T16:43:01.421Z,46.19
2018-04-28T16:44:01.595Z,46.26
2018-04-28T16:45:01.931Z,46.06
2018-04-28T16:46:01.939Z,47.61
2018-04-28T16:47:02.168Z,46.45
2018-04-28T16:48:01.861Z,46.45
2018-04-28T16:49:02.092Z,48.76
2018-04-28T16:50:02.427Z,48.28
2018-04-28T16:51:02.230Z,46.64
2018-04-28T16:52:02.825Z,47.61
2018-04-28T16:53:02.952Z,49.63
2018-04-28T16:54:02.695Z,49.15
2018-04-28T16:55:03.133Z,48.85
2018-04-28T16:56:03.776Z,49.63
2018-04-28T16:57:03.702Z,50.01
2018-04-28T16:58:03.260Z,50.2
2018-04-28T16:59:03.619Z,49.63
2018-04-28T17:00:09.996Z,48.47
2018-04-28T17:01:03.303Z,49.43
2018-04-28T17:02:03.674Z,50.3
2018-04-28T17:03:03.915Z,50.3
2018-04-28T17:04:04.032Z,48.57
2018-04-28T17:05:04.410Z,48.28
2018-04-28T17:06:04.142Z,50.49
2018-04-28T17:07:04.180Z,49.53
2018-04-28T17:08:04.726Z,49.05
2018-04-28T17:09:04.715Z,47.51
2018-04-28T17:10:04.696Z,48.45
2018-04-28T17:11:05.020Z,49.99
2018-04-28T17:12:05.031Z,50.08
2018-04-28T17:13:04.964Z,49.22
2018-04-28T17:14:05.281Z,48.25
2018-04-28T17:15:05.376Z,49.41
2018-04-28T17:16:06.121Z,48.45
2018-04-28T17:17:05.549Z,48.45
2018-04-28T17:18:05.523Z,49.6
2018-04-28T17:19:05.449Z,50.46
2018-04-28T17:20:05.557Z,49.51
2018-04-28T17:21:05.535Z,48.07
2018-04-28T17:22:05.807Z,49.51
2018-04-28T17:23:05.884Z,50.08
2018-04-28T17:24:06.153Z,50.46
2018-04-28T17:25:06.454Z,50.27
2018-04-28T17:26:05.977Z,50.37
2018-04-28T17:27:06.265Z,51.43
2018-04-28T17:28:06.315Z,50.85
2018-04-28T17:29:06.594Z,50.85
2018-04-28T17:30:06.207Z,50.37
2018-04-28T17:31:06.505Z,50.18
2018-04-28T17:32:06.224Z,52.29
2018-04-28T17:33:06.285Z,52.68
2018-04-28T17:34:06.933Z,49.99
2018-04-28T17:35:06.790Z,47.87
2018-04-28T17:36:06.890Z,48.93
2018-04-28T17:37:07.403Z,48.25
2018-04-28T17:38:07.215Z,46.23
2018-04-28T17:39:07.251Z,46.81
2018-04-28T17:40:07.297Z,47.39
2018-04-28T17:41:07.030Z,48.45
2018-04-28T17:42:07.356Z,49.41
2018-04-28T17:43:07.116Z,49.19
2018-04-28T17:44:07.427Z,49
2018-04-28T17:45:07.727Z,50.54
2018-04-28T17:46:07.780Z,52.65
2018-04-28T17:47:07.789Z,52.55
2018-04-28T17:48:07.549Z,49.67
2018-04-28T17:49:07.602Z,48.52
2018-04-28T17:50:07.907Z,48.81
2018-04-28T17:51:08.243Z,48.59
2018-04-28T17:52:08.290Z,47.63
2018-04-28T17:53:08.024Z,48.3
2018-04-28T17:54:08.279Z,49.36
2018-04-28T17:55:08.639Z,48.88
2018-04-28T17:56:08.698Z,49.36
2018-04-28T17:57:08.752Z,52.62
2018-04-28T17:58:09.099Z,50.99
2018-04-28T17:59:09.306Z,50.61
2018-04-28T19:00:06.483Z,55.8
2018-04-28T20:00:12.288Z,66.8
2018-04-28T20:01:12.336Z,67.18
2018-04-28T20:02:12.594Z,66.8
2018-04-28T20:03:12.918Z,66.99
2018-04-28T20:04:12.993Z,67.28
2018-04-28T20:05:13.036Z,67.76
2018-04-28T20:06:12.915Z,68.14
2018-04-28T20:07:12.763Z,68.72
2018-04-28T20:08:13.270Z,69.1
2018-04-28T20:09:12.813Z,68.72
2018-04-28T20:10:13.282Z,68.62
2018-04-28T20:11:13.370Z,68.52
2018-04-28T20:12:13.789Z,68.24
2018-04-28T20:13:13.951Z,67.95
2018-04-28T20:14:14.288Z,68.72
2018-04-28T20:15:14.317Z,69.29
2018-04-28T20:16:14.401Z,69.68
2018-04-28T20:17:14.375Z,70.06
2018-04-28T20:18:14.507Z,70.06
2018-04-28T20:19:14.727Z,70.03
2018-04-28T20:20:14.521Z,69.26
2018-04-28T20:21:15.259Z,69.29
2018-04-28T20:22:15.372Z,69.26
2018-04-28T20:23:15.072Z,69.87
2018-04-28T20:24:15.635Z,69.77
2018-04-28T20:25:15.096Z,69.64
2018-04-28T20:26:14.955Z,69.87
2018-04-28T20:27:15.186Z,70.6
2018-04-28T20:28:15.030Z,71.02
2018-04-28T20:29:15.375Z,71.5
2018-04-28T20:30:15.561Z,70.98
2018-04-28T20:31:15.636Z,70.6
2018-04-28T20:32:15.115Z,71.11
2018-04-28T20:33:16.104Z,71.21
2018-04-28T20:34:16.668Z,71.08
2018-04-28T20:35:16.355Z,71.59
2018-04-28T20:36:16.187Z,72.94
2018-04-28T20:37:16.188Z,72.42
2018-04-28T20:38:16.553Z,71.94
2018-04-28T20:39:16.497Z,72.74
2018-04-28T20:40:16.537Z,72.36
2018-04-28T20:41:16.924Z,72.45
2018-04-28T20:42:16.302Z,72.64
2018-04-28T20:43:16.335Z,72.84
2018-04-28T20:44:16.659Z,72.42
2018-04-28T20:45:16.430Z,72.9
2018-04-28T20:46:16.693Z,72.74
2018-04-28T20:47:16.751Z,73.51
2018-04-28T20:48:16.816Z,73.51
2018-04-28T20:49:17.092Z,73.28
2018-04-28T20:50:16.934Z,72.9
2018-04-28T20:51:17.268Z,72.55
2018-04-28T20:52:16.894Z,72.74
2018-04-28T20:53:17.014Z,73.22
2018-04-28T20:54:17.206Z,73.8
2018-04-28T20:55:16.448Z,74.62
2018-04-28T20:56:16.758Z,75.39
2018-04-28T20:57:16.575Z,76.77
2018-04-28T20:58:16.823Z,76.92
2018-04-28T20:59:16.956Z,76.92
2018-04-28T21:00:19.645Z,77.88
2018-04-28T21:01:19.805Z,77.97
2018-04-28T21:02:20.122Z,77.78
2018-04-28T21:03:19.944Z,79.03
2018-04-28T21:04:20.195Z,79.03
2018-04-28T21:05:20.331Z,78.64
2018-04-28T21:06:20.889Z,78.55
2018-04-28T21:07:21.005Z,78.55
2018-04-28T21:08:21.755Z,78.45
2018-04-28T21:09:21.749Z,79.22
2018-04-28T21:10:22.204Z,79.41
2018-04-28T21:11:22.459Z,78.64
2018-04-28T21:12:23.118Z,78.74
2018-04-28T21:13:23.185Z,78.36
2018-04-28T21:14:23.426Z,78.55
2018-04-28T21:15:23.842Z,78.84
2018-04-28T21:16:23.870Z,79.32
2018-04-28T21:17:24.786Z,79.99
2018-04-28T21:18:24.561Z,79.6
2018-04-28T21:19:24.231Z,79.89
2018-04-28T21:20:24.292Z,79.8
2018-04-28T21:21:24.615Z,79.6
2018-04-28T21:22:25.051Z,79.51
2018-04-28T21:23:25.175Z,79.41
2018-04-28T21:24:25.233Z,79.41
2018-04-28T21:25:25.520Z,79.13
2018-04-28T21:26:25.318Z,78.55
2018-04-28T21:27:25.052Z,78.32
2018-04-28T21:28:25.428Z,78.61
2018-04-28T21:29:25.458Z,79.08
2018-04-28T21:30:25.231Z,78.61
2018-04-28T21:31:26.193Z,78.51
2018-04-28T21:32:26.108Z,78.51
2018-04-28T21:33:26.147Z,78.42
2018-04-28T21:34:26.087Z,79.28
2018-04-28T21:35:26.403Z,79.37
2018-04-28T21:36:26.776Z,80.04
2018-04-28T21:37:27.183Z,80.71
2018-04-28T21:38:27.378Z,80.9
2018-04-28T21:39:27.087Z,80.9
2018-04-28T21:40:27.322Z,80.43